Morning Sun, Iowa
Current Conditions -  °F | °C
As of 10:55 AM on Sunday 23 Nov 2014 (Local Time) from KMPZ Reporting Station
Moderate Rain Moderate Rain  
Wind Chill: 44°   Ceiling: 600
Heat Index: 50°   Visibility: 3mi
Dew Point: 50°   Wind: 14mph
Humidity: 100%   Direction: 150°SSE
Pressure: 29.52"   Gusts: NA
Location:  41.1°N, 91.26°W
Report Text: KMPZ 231655Z AUTO 15012KT 3SM RA OVC006 10/10 A2952 RMK AO2 P0009 T00980098
Loading
Personal Weather Stations






























Interactive Weather Map New forecast layout! Learn more

10-Day Weather Forecast

Advertisements
Track Severe Weather on mobile